sensor_id;sensor_type;location;lat;lon;timestamp;pressure;altitude;pressure_sealevel;temperature;humidity
49194;BME280;35029;50.804;12.866;2023-07-29T00:00:56;97121.16;;;19.09;100.00
49194;BME280;35029;50.804;12.866;2023-07-29T00:03:21;97133.25;;;19.12;100.00
49194;BME280;35029;50.804;12.866;2023-07-29T00:05:47;97132.72;;;19.15;100.00
49194;BME280;35029;50.804;12.866;2023-07-29T00:08:13;97118.75;;;19.07;100.00
49194;BME280;35029;50.804;12.866;2023-07-29T00:10:39;97077.28;;;18.83;100.00
49194;BME280;35029;50.804;12.866;2023-07-29T00:13:05;97123.28;;;19.07;100.00
49194;BME280;35029;50.804;12.866;2023-07-29T00:15:31;97119.00;;;19.06;100.00
49194;BME280;35029;50.804;12.866;2023-07-29T00:17:57;97109.56;;;18.93;100.00
49194;BME280;35029;50.804;12.866;2023-07-29T00:20:23;97118.19;;;19.00;100.00
49194;BME280;35029;50.804;12.866;2023-07-29T00:22:48;97117.38;;;19.00;100.00
49194;BME280;35029;50.804;12.866;2023-07-29T00:25:16;97097.41;;;18.75;100.00
49194;BME280;35029;50.804;12.866;2023-07-29T00:27:42;97109.84;;;18.97;100.00
49194;BME280;35029;50.804;12.866;2023-07-29T00:30:07;97109.84;;;18.97;100.00
49194;BME280;35029;50.804;12.866;2023-07-29T00:32:35;97111.19;;;18.94;100.00
49194;BME280;35029;50.804;12.866;2023-07-29T00:35:01;97092.03;;;18.75;100.00
49194;BME280;35029;50.804;12.866;2023-07-29T00:37:28;97093.09;;;18.74;100.00
49194;BME280;35029;50.804;12.866;2023-07-29T00:39:53;97101.22;;;18.89;100.00
49194;BME280;35029;50.804;12.866;2023-07-29T00:42:19;97103.91;;;18.89;100.00
49194;BME280;35029;50.804;12.866;2023-07-29T00:44:47;97102.31;;;18.94;100.00
49194;BME280;35029;50.804;12.866;2023-07-29T00:47:15;97042.84;;;18.54;100.00
49194;BME280;35029;50.804;12.866;2023-07-29T00:49:42;97091.31;;;18.90;100.00
49194;BME280;35029;50.804;12.866;2023-07-29T00:52:08;97093.13;;;18.79;100.00
49194;BME280;35029;50.804;12.866;2023-07-29T00:54:33;97086.97;;;18.84;100.00
49194;BME280;35029;50.804;12.866;2023-07-29T00:56:59;97088.03;;;18.83;100.00
49194;BME280;35029;50.804;12.866;2023-07-29T00:59:25;97085.59;;;18.81;100.00
49194;BME280;35029;50.804;12.866;2023-07-29T01:01:53;97076.75;;;18.81;100.00
49194;BME280;35029;50.804;12.866;2023-07-29T01:04:19;97077.28;;;18.78;100.00
49194;BME280;35029;50.804;12.866;2023-07-29T01:06:58;97077.28;;;18.72;100.00
49194;BME280;35029;50.804;12.866;2023-07-29T01:09:44;97082.09;;;18.70;100.00
49194;BME280;35029;50.804;12.866;2023-07-29T01:12:21;97082.09;;;18.65;100.00
49194;BME280;35029;50.804;12.866;2023-07-29T01:15:08;97072.94;;;18.56;100.00
49194;BME280;35029;50.804;12.866;2023-07-29T01:20:59;97073.19;;;18.59;100.00
49194;BME280;35029;50.804;12.866;2023-07-29T01:23:31;97042.00;;;18.43;100.00
49194;BME280;35029;50.804;12.866;2023-07-29T01:25:58;97063.53;;;18.58;100.00
49194;BME280;35029;50.804;12.866;2023-07-29T01:28:23;97075.88;;;18.54;100.00
49194;BME280;35029;50.804;12.866;2023-07-29T01:31:03;97073.16;;;18.49;100.00
49194;BME280;35029;50.804;12.866;2023-07-29T01:33:38;97065.66;;;18.46;100.00
49194;BME280;35029;50.804;12.866;2023-07-29T01:36:26;97069.09;;;18.41;100.00
49194;BME280;35029;50.804;12.866;2023-07-29T01:38:53;97049.72;;;18.19;100.00
49194;BME280;35029;50.804;12.866;2023-07-29T01:41:20;97065.56;;;18.26;100.00
49194;BME280;35029;50.804;12.866;2023-07-29T01:43:46;97080.56;;;18.27;100.00
49194;BME280;35029;50.804;12.866;2023-07-29T01:46:13;97087.03;;;18.26;100.00
49194;BME280;35029;50.804;12.866;2023-07-29T01:48:40;97075.44;;;18.15;100.00
49194;BME280;35029;50.804;12.866;2023-07-29T01:51:06;97082.41;;;18.16;100.00
49194;BME280;35029;50.804;12.866;2023-07-29T01:53:32;97090.69;;;18.09;100.00
49194;BME280;35029;50.804;12.866;2023-07-29T01:55:58;97097.94;;;18.08;100.00
49194;BME280;35029;50.804;12.866;2023-07-29T01:58:24;97080.19;;;18.02;100.00
49194;BME280;35029;50.804;12.866;2023-07-29T02:00:51;97094.72;;;18.12;100.00
49194;BME280;35029;50.804;12.866;2023-07-29T02:03:16;97096.63;;;18.16;100.00
49194;BME280;35029;50.804;12.866;2023-07-29T02:05:42;97087.50;;;18.12;100.00
49194;BME280;35029;50.804;12.866;2023-07-29T02:08:10;97094.22;;;18.20;100.00
49194;BME280;35029;50.804;12.866;2023-07-29T02:10:36;97086.22;;;18.25;100.00
49194;BME280;35029;50.804;12.866;2023-07-29T02:13:03;97098.00;;;18.24;100.00
49194;BME280;35029;50.804;12.866;2023-07-29T02:15:29;97092.41;;;18.31;100.00
49194;BME280;35029;50.804;12.866;2023-07-29T02:17:55;97094.59;;;18.34;100.00
49194;BME280;35029;50.804;12.866;2023-07-29T02:20:20;97107.72;;;18.35;100.00
49194;BME280;35029;50.804;12.866;2023-07-29T02:22:46;97103.72;;;18.38;100.00
49194;BME280;35029;50.804;12.866;2023-07-29T02:25:13;97106.41;;;18.38;100.00
49194;BME280;35029;50.804;12.866;2023-07-29T02:27:39;97103.47;;;18.45;100.00
49194;BME280;35029;50.804;12.866;2023-07-29T02:30:05;97093.53;;;18.40;100.00
49194;BME280;35029;50.804;12.866;2023-07-29T02:32:31;97103.47;;;18.50;100.00
49194;BME280;35029;50.804;12.866;2023-07-29T02:34:56;97097.63;;;18.53;100.00
49194;BME280;35029;50.804;12.866;2023-07-29T02:37:22;97099.22;;;18.54;100.00
49194;BME280;35029;50.804;12.866;2023-07-29T02:39:48;97098.94;;;18.55;100.00
49194;BME280;35029;50.804;12.866;2023-07-29T02:42:13;97093.84;;;18.54;100.00
49194;BME280;35029;50.804;12.866;2023-07-29T02:44:40;97099.78;;;18.56;100.00
49194;BME280;35029;50.804;12.866;2023-07-29T02:47:05;97100.81;;;18.55;100.00
49194;BME280;35029;50.804;12.866;2023-07-29T02:49:31;97093.31;;;18.52;100.00
49194;BME280;35029;50.804;12.866;2023-07-29T02:51:57;97080.44;;;18.49;100.00
49194;BME280;35029;50.804;12.866;2023-07-29T02:54:22;97091.97;;;18.59;100.00
49194;BME280;35029;50.804;12.866;2023-07-29T02:56:50;97101.66;;;18.61;100.00
49194;BME280;35029;50.804;12.866;2023-07-29T02:59:15;97097.38;;;18.65;100.00
49194;BME280;35029;50.804;12.866;2023-07-29T03:01:41;97089.03;;;18.56;100.00
49194;BME280;35029;50.804;12.866;2023-07-29T03:04:06;97096.03;;;18.57;100.00
49194;BME280;35029;50.804;12.866;2023-07-29T03:06:32;97090.38;;;18.58;100.00
49194;BME280;35029;50.804;12.866;2023-07-29T03:08:58;97089.06;;;18.61;100.00
49194;BME280;35029;50.804;12.866;2023-07-29T03:11:23;97073.97;;;18.50;100.00
49194;BME280;35029;50.804;12.866;2023-07-29T03:13:49;97090.13;;;18.60;100.00
49194;BME280;35029;50.804;12.866;2023-07-29T03:16:16;97078.03;;;18.57;100.00
49194;BME280;35029;50.804;12.866;2023-07-29T03:18:49;97075.59;;;18.56;100.00
49194;BME280;35029;50.804;12.866;2023-07-29T03:21:14;97072.94;;;18.61;100.00
49194;BME280;35029;50.804;12.866;2023-07-29T03:23:40;97073.72;;;18.56;100.00
49194;BME280;35029;50.804;12.866;2023-07-29T03:26:07;97075.06;;;18.59;100.00
49194;BME280;35029;50.804;12.866;2023-07-29T03:28:40;97076.97;;;18.64;100.00
49194;BME280;35029;50.804;12.866;2023-07-29T03:31:06;97070.25;;;18.56;100.00
49194;BME280;35029;50.804;12.866;2023-07-29T03:33:33;97075.91;;;18.65;100.00
49194;BME280;35029;50.804;12.866;2023-07-29T03:35:59;97071.34;;;18.70;100.00
49194;BME280;35029;50.804;12.866;2023-07-29T03:38:25;97074.06;;;18.75;100.00
49194;BME280;35029;50.804;12.866;2023-07-29T03:40:51;97076.47;;;18.72;100.00
49194;BME280;35029;50.804;12.866;2023-07-29T03:43:17;97081.84;;;18.77;100.00
49194;BME280;35029;50.804;12.866;2023-07-29T03:45:43;97079.72;;;18.79;100.00
49194;BME280;35029;50.804;12.866;2023-07-29T03:48:08;97079.72;;;18.79;100.00
49194;BME280;35029;50.804;12.866;2023-07-29T03:50:35;97086.94;;;18.79;100.00
49194;BME280;35029;50.804;12.866;2023-07-29T03:53:02;97095.00;;;18.79;100.00
49194;BME280;35029;50.804;12.866;2023-07-29T03:55:28;97086.69;;;18.80;100.00
49194;BME280;35029;50.804;12.866;2023-07-29T03:58:00;97081.31;;;18.80;100.00
49194;BME280;35029;50.804;12.866;2023-07-29T04:00:26;97088.28;;;18.81;100.00
49194;BME280;35029;50.804;12.866;2023-07-29T04:02:53;97084.53;;;18.82;100.00
49194;BME280;35029;50.804;12.866;2023-07-29T04:05:19;97073.78;;;18.67;100.00
49194;BME280;35029;50.804;12.866;2023-07-29T04:07:46;97079.41;;;18.75;100.00
49194;BME280;35029;50.804;12.866;2023-07-29T04:10:11;97080.22;;;18.81;100.00
49194;BME280;35029;50.804;12.866;2023-07-29T04:12:38;97089.91;;;18.72;100.00
49194;BME280;35029;50.804;12.866;2023-07-29T04:15:04;97087.44;;;18.70;100.00
49194;BME280;35029;50.804;12.866;2023-07-29T04:17:30;97084.25;;;18.79;100.00
49194;BME280;35029;50.804;12.866;2023-07-29T04:19:55;97076.75;;;18.81;100.00
49194;BME280;35029;50.804;12.866;2023-07-29T04:22:25;97068.97;;;18.84;100.00
49194;BME280;35029;50.804;12.866;2023-07-29T04:24:50;97076.22;;;18.84;100.00
49194;BME280;35029;50.804;12.866;2023-07-29T04:27:16;97066.53;;;18.83;100.00
49194;BME280;35029;50.804;12.866;2023-07-29T04:29:41;97070.56;;;18.85;100.00
49194;BME280;35029;50.804;12.866;2023-07-29T04:32:07;97074.94;;;18.91;100.00
49194;BME280;35029;50.804;12.866;2023-07-29T04:34:33;97069.28;;;18.93;100.00
49194;BME280;35029;50.804;12.866;2023-07-29T04:36:59;97072.25;;;18.97;100.00
49194;BME280;35029;50.804;12.866;2023-07-29T04:39:25;97072.53;;;19.00;100.00
49194;BME280;35029;50.804;12.866;2023-07-29T04:41:51;97066.63;;;18.98;100.00
49194;BME280;35029;50.804;12.866;2023-07-29T04:44:16;97078.97;;;19.04;100.00
49194;BME280;35029;50.804;12.866;2023-07-29T04:46:42;97070.91;;;19.04;100.00
49194;BME280;35029;50.804;12.866;2023-07-29T04:49:07;97063.41;;;19.01;100.00
49194;BME280;35029;50.804;12.866;2023-07-29T04:51:33;97071.47;;;19.12;100.00
49194;BME280;35029;50.804;12.866;2023-07-29T04:53:59;97051.31;;;19.04;100.00
49194;BME280;35029;50.804;12.866;2023-07-29T04:56:25;97063.94;;;19.14;100.00
49194;BME280;35029;50.804;12.866;2023-07-29T04:58:51;97064.50;;;19.11;100.00
49194;BME280;35029;50.804;12.866;2023-07-29T05:01:17;97057.75;;;19.08;100.00
49194;BME280;35029;50.804;12.866;2023-07-29T05:03:45;97055.34;;;19.17;100.00
49194;BME280;35029;50.804;12.866;2023-07-29T05:06:11;97047.81;;;19.14;100.00
49194;BME280;35029;50.804;12.866;2023-07-29T05:08:37;97043.00;;;19.16;100.00
49194;BME280;35029;50.804;12.866;2023-07-29T05:11:03;97051.31;;;19.19;100.00
49194;BME280;35029;50.804;12.866;2023-07-29T05:13:28;97029.03;;;19.19;100.00
49194;BME280;35029;50.804;12.866;2023-07-29T05:15:54;97037.34;;;19.28;100.00
49194;BME280;35029;50.804;12.866;2023-07-29T05:18:20;97036.81;;;19.25;100.00
49194;BME280;35029;50.804;12.866;2023-07-29T05:20:46;97034.38;;;19.29;100.00
49194;BME280;35029;50.804;12.866;2023-07-29T05:23:12;97035.75;;;19.42;100.00
49194;BME280;35029;50.804;12.866;2023-07-29T05:25:38;97022.56;;;19.35;100.00
49194;BME280;35029;50.804;12.866;2023-07-29T05:28:03;97021.50;;;19.31;100.00
49194;BME280;35029;50.804;12.866;2023-07-29T05:30:30;97040.31;;;19.52;100.00
49194;BME280;35029;50.804;12.866;2023-07-29T05:33:03;97031.16;;;19.48;100.00
49194;BME280;35029;50.804;12.866;2023-07-29T05:35:30;97029.53;;;19.57;100.00
49194;BME280;35029;50.804;12.866;2023-07-29T05:37:56;97037.06;;;19.65;100.00
49194;BME280;35029;50.804;12.866;2023-07-29T05:40:21;97028.22;;;19.59;100.00
49194;BME280;35029;50.804;12.866;2023-07-29T05:42:47;97044.31;;;19.70;100.00
49194;BME280;35029;50.804;12.866;2023-07-29T05:45:13;97053.75;;;19.62;100.00
49194;BME280;35029;50.804;12.866;2023-07-29T05:47:38;97049.69;;;19.70;100.00
49194;BME280;35029;50.804;12.866;2023-07-29T05:50:05;97038.69;;;19.61;100.00
49194;BME280;35029;50.804;12.866;2023-07-29T05:52:31;97054.50;;;19.78;100.00
49194;BME280;35029;50.804;12.866;2023-07-29T05:54:57;97042.44;;;19.65;98.44
49194;BME280;35029;50.804;12.866;2023-07-29T05:57:23;97045.66;;;19.67;98.75
49194;BME280;35029;50.804;12.866;2023-07-29T05:59:49;97057.50;;;19.82;99.15
49194;BME280;35029;50.804;12.866;2023-07-29T06:02:15;97059.34;;;19.91;100.00
49194;BME280;35029;50.804;12.866;2023-07-29T06:04:41;97065.28;;;19.93;99.58
49194;BME280;35029;50.804;12.866;2023-07-29T06:07:06;97058.78;;;20.00;100.00
49194;BME280;35029;50.804;12.866;2023-07-29T06:09:33;97051.84;;;19.88;99.62
49194;BME280;35029;50.804;12.866;2023-07-29T06:11:59;97059.06;;;19.93;97.74
49194;BME280;35029;50.804;12.866;2023-07-29T06:14:25;97064.72;;;20.07;97.46
49194;BME280;35029;50.804;12.866;2023-07-29T06:16:51;97062.81;;;20.13;96.22
49194;BME280;35029;50.804;12.866;2023-07-29T06:19:18;97052.25;;;20.26;96.75
49194;BME280;35029;50.804;12.866;2023-07-29T06:21:43;97053.00;;;20.42;97.00
49194;BME280;35029;50.804;12.866;2023-07-29T06:24:09;97051.41;;;20.41;95.37
49194;BME280;35029;50.804;12.866;2023-07-29T06:26:35;97051.13;;;20.38;93.31
49194;BME280;35029;50.804;12.866;2023-07-29T06:29:00;97058.16;;;20.34;93.04
49194;BME280;35029;50.804;12.866;2023-07-29T06:31:26;97053.53;;;20.44;94.18
49194;BME280;35029;50.804;12.866;2023-07-29T06:33:51;97054.31;;;20.50;94.11
49194;BME280;35029;50.804;12.866;2023-07-29T06:36:17;97056.47;;;20.53;92.46
49194;BME280;35029;50.804;12.866;2023-07-29T06:38:43;97064.19;;;20.75;92.97
49194;BME280;35029;50.804;12.866;2023-07-29T06:41:08;97040.53;;;20.62;88.70
49194;BME280;35029;50.804;12.866;2023-07-29T06:43:34;97042.16;;;20.58;88.78
49194;BME280;35029;50.804;12.866;2023-07-29T06:45:59;97060.81;;;20.94;89.31
49194;BME280;35029;50.804;12.866;2023-07-29T06:48:25;97060.22;;;21.07;89.28
49194;BME280;35029;50.804;12.866;2023-07-29T06:50:50;97049.72;;;21.40;87.40
49194;BME280;35029;50.804;12.866;2023-07-29T06:53:16;97055.41;;;21.73;86.45
49194;BME280;35029;50.804;12.866;2023-07-29T06:55:43;97053.34;;;21.89;87.38
49194;BME280;35029;50.804;12.866;2023-07-29T06:58:09;97050.25;;;21.72;86.38
49194;BME280;35029;50.804;12.866;2023-07-29T07:00:35;97057.06;;;21.30;84.63
49194;BME280;35029;50.804;12.866;2023-07-29T07:03:00;97066.41;;;21.08;85.40
49194;BME280;35029;50.804;12.866;2023-07-29T07:05:26;97037.66;;;20.43;86.74
49194;BME280;35029;50.804;12.866;2023-07-29T07:07:51;97034.19;;;20.37;87.70
49194;BME280;35029;50.804;12.866;2023-07-29T07:10:17;97048.34;;;20.58;87.43
49194;BME280;35029;50.804;12.866;2023-07-29T07:12:43;97049.56;;;20.87;88.79
49194;BME280;35029;50.804;12.866;2023-07-29T07:15:09;97040.31;;;20.98;86.07
49194;BME280;35029;50.804;12.866;2023-07-29T07:17:34;97038.03;;;21.21;85.79
49194;BME280;35029;50.804;12.866;2023-07-29T07:20:00;97026.72;;;21.19;85.10
49194;BME280;35029;50.804;12.866;2023-07-29T07:22:25;97029.75;;;21.41;86.19
49194;BME280;35029;50.804;12.866;2023-07-29T07:24:51;97031.75;;;21.65;84.29
49194;BME280;35029;50.804;12.866;2023-07-29T07:27:16;97031.38;;;21.72;82.25
49194;BME280;35029;50.804;12.866;2023-07-29T07:29:42;97036.53;;;21.73;81.13
49194;BME280;35029;50.804;12.866;2023-07-29T07:32:07;97015.34;;;21.86;80.31
49194;BME280;35029;50.804;12.866;2023-07-29T07:34:33;97017.88;;;22.01;80.10
49194;BME280;35029;50.804;12.866;2023-07-29T07:37:00;97026.34;;;21.89;78.87
49194;BME280;35029;50.804;12.866;2023-07-29T07:39:26;97017.28;;;22.04;78.69
49194;BME280;35029;50.804;12.866;2023-07-29T07:41:51;96998.81;;;21.92;78.33
49194;BME280;35029;50.804;12.866;2023-07-29T07:44:17;96994.56;;;21.86;79.59
49194;BME280;35029;50.804;12.866;2023-07-29T07:46:45;96990.44;;;21.94;79.29
49194;BME280;35029;50.804;12.866;2023-07-29T07:49:11;96977.78;;;22.14;80.36
49194;BME280;35029;50.804;12.866;2023-07-29T07:51:38;96984.28;;;22.32;78.73
49194;BME280;35029;50.804;12.866;2023-07-29T07:54:03;96981.88;;;22.54;80.01
49194;BME280;35029;50.804;12.866;2023-07-29T07:56:29;96971.06;;;22.73;77.76
49194;BME280;35029;50.804;12.866;2023-07-29T07:58:54;96968.72;;;22.67;75.70
49194;BME280;35029;50.804;12.866;2023-07-29T08:01:20;96971.66;;;22.89;75.18
49194;BME280;35029;50.804;12.866;2023-07-29T08:03:45;96973.06;;;23.01;76.24
49194;BME280;35029;50.804;12.866;2023-07-29T08:06:11;96988.78;;;22.79;75.27
49194;BME280;35029;50.804;12.866;2023-07-29T08:08:36;96995.75;;;22.67;73.31
49194;BME280;35029;50.804;12.866;2023-07-29T08:11:02;97000.78;;;22.73;74.56
49194;BME280;35029;50.804;12.866;2023-07-29T08:13:28;97009.19;;;22.72;73.72
49194;BME280;35029;50.804;12.866;2023-07-29T08:15:53;97016.81;;;22.84;74.08
49194;BME280;35029;50.804;12.866;2023-07-29T08:18:19;97021.13;;;22.66;75.03
49194;BME280;35029;50.804;12.866;2023-07-29T08:20:56;97020.16;;;22.37;74.48
49194;BME280;35029;50.804;12.866;2023-07-29T08:23:24;97017.13;;;22.20;75.02
49194;BME280;35029;50.804;12.866;2023-07-29T08:25:52;97022.13;;;22.07;76.86
49194;BME280;35029;50.804;12.866;2023-07-29T08:28:18;97011.69;;;22.01;76.39
49194;BME280;35029;50.804;12.866;2023-07-29T08:30:44;97026.56;;;21.98;75.19
49194;BME280;35029;50.804;12.866;2023-07-29T08:33:09;97006.97;;;21.87;74.60
49194;BME280;35029;50.804;12.866;2023-07-29T08:35:35;97018.91;;;22.05;74.12
49194;BME280;35029;50.804;12.866;2023-07-29T08:38:01;97018.44;;;22.22;72.90
49194;BME280;35029;50.804;12.866;2023-07-29T08:40:29;97026.91;;;22.16;70.78
49194;BME280;35029;50.804;12.866;2023-07-29T08:42:56;97006.03;;;22.21;69.80
49194;BME280;35029;50.804;12.866;2023-07-29T08:45:24;97018.91;;;22.54;69.33
49194;BME280;35029;50.804;12.866;2023-07-29T08:47:54;97015.22;;;22.44;69.83
49194;BME280;35029;50.804;12.866;2023-07-29T08:50:24;97018.59;;;22.31;69.86
49194;BME280;35029;50.804;12.866;2023-07-29T08:52:58;97018.44;;;22.47;70.32
49194;BME280;35029;50.804;12.866;2023-07-29T08:55:24;97017.09;;;22.44;70.08
49194;BME280;35029;50.804;12.866;2023-07-29T08:57:50;97019.97;;;22.53;68.85
49194;BME280;35029;50.804;12.866;2023-07-29T09:00:16;97017.72;;;22.60;69.82
49194;BME280;35029;50.804;12.866;2023-07-29T09:02:42;97006.53;;;22.67;70.99
49194;BME280;35029;50.804;12.866;2023-07-29T09:05:08;97001.00;;;22.96;68.46
49194;BME280;35029;50.804;12.866;2023-07-29T09:07:34;97009.59;;;23.17;70.28
49194;BME280;35029;50.804;12.866;2023-07-29T09:10:01;97010.78;;;23.11;70.52
49194;BME280;35029;50.804;12.866;2023-07-29T09:12:27;97018.81;;;22.78;72.17
49194;BME280;35029;50.804;12.866;2023-07-29T09:14:52;97015.97;;;22.69;75.77
49194;BME280;35029;50.804;12.866;2023-07-29T09:17:19;97021.94;;;22.47;78.37
49194;BME280;35029;50.804;12.866;2023-07-29T09:19:50;96992.00;;;22.19;84.12
49194;BME280;35029;50.804;12.866;2023-07-29T09:22:20;97003.63;;;22.20;86.78
49194;BME280;35029;50.804;12.866;2023-07-29T09:24:49;97005.06;;;22.36;85.06
49194;BME280;35029;50.804;12.866;2023-07-29T09:27:28;96993.97;;;22.38;85.42
49194;BME280;35029;50.804;12.866;2023-07-29T09:29:56;96999.22;;;22.48;82.75
49194;BME280;35029;50.804;12.866;2023-07-29T09:32:24;96972.22;;;22.48;83.64
49194;BME280;35029;50.804;12.866;2023-07-29T09:34:50;96989.75;;;22.70;85.08
49194;BME280;35029;50.804;12.866;2023-07-29T09:37:22;97001.22;;;22.61;78.05
49194;BME280;35029;50.804;12.866;2023-07-29T09:39:48;96994.59;;;22.73;81.60
49194;BME280;35029;50.804;12.866;2023-07-29T09:42:22;96995.59;;;22.39;79.90
49194;BME280;35029;50.804;12.866;2023-07-29T09:44:49;96998.84;;;22.36;78.16
49194;BME280;35029;50.804;12.866;2023-07-29T09:47:23;97003.41;;;22.16;77.62
49194;BME280;35029;50.804;12.866;2023-07-29T09:49:50;97004.66;;;22.24;78.93
49194;BME280;35029;50.804;12.866;2023-07-29T09:52:21;97012.66;;;22.29;77.98
49194;BME280;35029;50.804;12.866;2023-07-29T09:54:48;97008.94;;;22.25;77.55
49194;BME280;35029;50.804;12.866;2023-07-29T09:57:15;97018.38;;;22.27;76.19
49194;BME280;35029;50.804;12.866;2023-07-29T09:59:43;97004.31;;;22.31;77.48
49194;BME280;35029;50.804;12.866;2023-07-29T10:02:16;96989.25;;;22.24;77.34
49194;BME280;35029;50.804;12.866;2023-07-29T10:04:43;96993.78;;;22.29;77.79
49194;BME280;35029;50.804;12.866;2023-07-29T10:07:11;97009.34;;;22.37;77.41
49194;BME280;35029;50.804;12.866;2023-07-29T10:09:40;97002.81;;;22.43;77.10
49194;BME280;35029;50.804;12.866;2023-07-29T10:12:07;97010.06;;;22.24;76.29
49194;BME280;35029;50.804;12.866;2023-07-29T10:14:36;97004.03;;;22.32;77.62
49194;BME280;35029;50.804;12.866;2023-07-29T10:17:05;96996.63;;;21.94;76.70
49194;BME280;35029;50.804;12.866;2023-07-29T10:19:31;97019.81;;;22.20;77.01
49194;BME280;35029;50.804;12.866;2023-07-29T10:22:02;97011.28;;;22.32;76.76
49194;BME280;35029;50.804;12.866;2023-07-29T10:24:32;97009.25;;;22.23;75.48
49194;BME280;35029;50.804;12.866;2023-07-29T10:27:00;97014.69;;;22.42;73.89
49194;BME280;35029;50.804;12.866;2023-07-29T10:29:31;97009.81;;;22.44;73.16
49194;BME280;35029;50.804;12.866;2023-07-29T10:32:01;97011.28;;;22.32;73.68
49194;BME280;35029;50.804;12.866;2023-07-29T10:34:28;97010.19;;;22.38;73.75
49194;BME280;35029;50.804;12.866;2023-07-29T10:36:55;97010.97;;;22.38;74.52
49194;BME280;35029;50.804;12.866;2023-07-29T10:39:21;96995.09;;;22.32;75.83
49194;BME280;35029;50.804;12.866;2023-07-29T10:42:01;97014.66;;;22.67;76.81
49194;BME280;35029;50.804;12.866;2023-07-29T10:49:44;96995.69;;;22.53;76.64
49194;BME280;35029;50.804;12.866;2023-07-29T10:52:14;97007.25;;;22.34;76.77
49194;BME280;35029;50.804;12.866;2023-07-29T10:54:48;97004.44;;;22.44;77.28
49194;BME280;35029;50.804;12.866;2023-07-29T10:57:15;96984.44;;;22.21;78.17
49194;BME280;35029;50.804;12.866;2023-07-29T10:59:54;97013.25;;;22.26;79.89
49194;BME280;35029;50.804;12.866;2023-07-29T11:02:21;97008.16;;;22.00;79.21
49194;BME280;35029;50.804;12.866;2023-07-29T11:04:53;97010.31;;;22.03;78.93
49194;BME280;35029;50.804;12.866;2023-07-29T11:07:20;96997.91;;;22.02;80.78
49194;BME280;35029;50.804;12.866;2023-07-29T11:10:02;97014.16;;;21.97;81.18
49194;BME280;35029;50.804;12.866;2023-07-29T11:12:43;97011.00;;;21.90;81.07
49194;BME280;35029;50.804;12.866;2023-07-29T11:15:14;97004.47;;;21.91;80.41
49194;BME280;35029;50.804;12.866;2023-07-29T11:17:42;96997.94;;;21.97;80.98
49194;BME280;35029;50.804;12.866;2023-07-29T11:20:12;97009.28;;;21.99;80.56
49194;BME280;35029;50.804;12.866;2023-07-29T11:22:38;97007.59;;;21.79;81.75
49194;BME280;35029;50.804;12.866;2023-07-29T11:25:07;96998.06;;;21.87;81.35
49194;BME280;35029;50.804;12.866;2023-07-29T11:27:33;96982.56;;;21.73;81.13
49194;BME280;35029;50.804;12.866;2023-07-29T11:30:00;97001.88;;;21.86;83.03
49194;BME280;35029;50.804;12.866;2023-07-29T11:32:26;96994.03;;;21.60;82.21
49194;BME280;35029;50.804;12.866;2023-07-29T11:34:52;96968.22;;;21.78;82.67
49194;BME280;35029;50.804;12.866;2023-07-29T11:37:18;96987.34;;;21.82;81.89
49194;BME280;35029;50.804;12.866;2023-07-29T11:39:46;96977.81;;;21.65;82.47
49194;BME280;35029;50.804;12.866;2023-07-29T11:42:15;96969.72;;;21.65;82.72
49194;BME280;35029;50.804;12.866;2023-07-29T11:44:43;96986.34;;;21.72;82.30
49194;BME280;35029;50.804;12.866;2023-07-29T11:47:10;96991.75;;;21.97;81.30
49194;BME280;35029;50.804;12.866;2023-07-29T11:49:38;97005.47;;;22.00;81.00
49194;BME280;35029;50.804;12.866;2023-07-29T11:52:09;96991.47;;;21.98;82.23
49194;BME280;35029;50.804;12.866;2023-07-29T11:54:36;96991.47;;;21.98;81.62
49194;BME280;35029;50.804;12.866;2023-07-29T11:57:07;96992.66;;;21.87;79.62
49194;BME280;35029;50.804;12.866;2023-07-29T11:59:46;96984.56;;;21.63;80.55
49194;BME280;35029;50.804;12.866;2023-07-29T12:02:16;96983.22;;;21.65;82.06
49194;BME280;35029;50.804;12.866;2023-07-29T12:04:43;96977.28;;;21.34;82.90
49194;BME280;35029;50.804;12.866;2023-07-29T12:07:09;96967.16;;;21.20;84.79
49194;BME280;35029;50.804;12.866;2023-07-29T12:09:36;96962.66;;;21.10;87.70
49194;BME280;35029;50.804;12.866;2023-07-29T12:12:03;96961.00;;;21.15;90.43
49194;BME280;35029;50.804;12.866;2023-07-29T12:14:31;96938.66;;;20.80;92.32
49194;BME280;35029;50.804;12.866;2023-07-29T12:17:04;96959.19;;;20.65;97.10
49194;BME280;35029;50.804;12.866;2023-07-29T12:19:37;96951.69;;;20.57;98.99
49194;BME280;35029;50.804;12.866;2023-07-29T12:22:05;96941.97;;;20.61;99.47
49194;BME280;35029;50.804;12.866;2023-07-29T12:24:32;96954.22;;;20.43;97.56
49194;BME280;35029;50.804;12.866;2023-07-29T12:27:00;96951.25;;;20.44;97.41
49194;BME280;35029;50.804;12.866;2023-07-29T12:29:28;96958.50;;;20.49;99.07
49194;BME280;35029;50.804;12.866;2023-07-29T12:32:02;96962.72;;;20.60;100.00
49194;BME280;35029;50.804;12.866;2023-07-29T12:34:28;96960.50;;;21.07;100.00
49194;BME280;35029;50.804;12.866;2023-07-29T12:36:56;96967.28;;;21.34;98.91
49194;BME280;35029;50.804;12.866;2023-07-29T12:39:31;96957.38;;;21.83;91.90
49194;BME280;35029;50.804;12.866;2023-07-29T12:41:58;96944.03;;;21.92;89.72
49194;BME280;35029;50.804;12.866;2023-07-29T12:44:33;96956.69;;;21.43;92.17
49194;BME280;35029;50.804;12.866;2023-07-29T12:47:01;96947.97;;;21.27;93.74
49194;BME280;35029;50.804;12.866;2023-07-29T12:49:28;96956.34;;;21.50;93.49
49194;BME280;35029;50.804;12.866;2023-07-29T12:51:56;96923.97;;;21.55;90.97
49194;BME280;35029;50.804;12.866;2023-07-29T12:54:22;96951.56;;;22.38;88.91